sensor_id;sensor_type;location;lat;lon;timestamp;P1;durP1;ratioP1;P2;durP2;ratioP2
79027;SDS011;68427;48.476;19.102;2023-03-14T00:01:20;14.68;;;8.80;;
79027;SDS011;68427;48.476;19.102;2023-03-14T00:03:46;13.32;;;8.55;;
79027;SDS011;68427;48.476;19.102;2023-03-14T00:06:12;15.75;;;9.75;;
79027;SDS011;68427;48.476;19.102;2023-03-14T00:08:41;14.05;;;8.90;;
79027;SDS011;68427;48.476;19.102;2023-03-14T00:11:09;11.05;;;7.22;;
79027;SDS011;68427;48.476;19.102;2023-03-14T00:13:36;10.40;;;6.85;;
79027;SDS011;68427;48.476;19.102;2023-03-14T00:16:03;9.05;;;5.15;;
79027;SDS011;68427;48.476;19.102;2023-03-14T00:18:29;9.05;;;6.82;;
79027;SDS011;68427;48.476;19.102;2023-03-14T00:20:56;8.30;;;4.75;;
79027;SDS011;68427;48.476;19.102;2023-03-14T00:23:22;9.00;;;6.30;;
79027;SDS011;68427;48.476;19.102;2023-03-14T00:25:50;10.77;;;7.65;;
79027;SDS011;68427;48.476;19.102;2023-03-14T00:28:15;8.40;;;5.72;;
79027;SDS011;68427;48.476;19.102;2023-03-14T00:30:41;9.18;;;6.40;;
79027;SDS011;68427;48.476;19.102;2023-03-14T00:33:07;8.73;;;6.10;;
79027;SDS011;68427;48.476;19.102;2023-03-14T00:35:32;12.60;;;5.90;;
79027;SDS011;68427;48.476;19.102;2023-03-14T00:37:58;8.27;;;5.25;;
79027;SDS011;68427;48.476;19.102;2023-03-14T00:40:24;17.55;;;8.75;;
79027;SDS011;68427;48.476;19.102;2023-03-14T00:42:51;47.92;;;20.20;;
79027;SDS011;68427;48.476;19.102;2023-03-14T00:45:17;38.97;;;16.02;;
79027;SDS011;68427;48.476;19.102;2023-03-14T00:47:42;37.30;;;16.67;;
79027;SDS011;68427;48.476;19.102;2023-03-14T00:52:36;20.52;;;10.95;;
79027;SDS011;68427;48.476;19.102;2023-03-14T00:55:01;10.63;;;6.85;;
79027;SDS011;68427;48.476;19.102;2023-03-14T00:57:27;16.75;;;8.00;;
79027;SDS011;68427;48.476;19.102;2023-03-14T00:59:54;10.32;;;6.97;;
79027;SDS011;68427;48.476;19.102;2023-03-14T01:02:20;10.98;;;7.43;;
79027;SDS011;68427;48.476;19.102;2023-03-14T01:04:47;9.25;;;5.85;;
79027;SDS011;68427;48.476;19.102;2023-03-14T01:07:13;14.57;;;7.75;;
79027;SDS011;68427;48.476;19.102;2023-03-14T01:09:38;11.90;;;8.27;;
79027;SDS011;68427;48.476;19.102;2023-03-14T01:12:04;16.08;;;8.93;;
79027;SDS011;68427;48.476;19.102;2023-03-14T01:14:30;18.58;;;9.05;;
79027;SDS011;68427;48.476;19.102;2023-03-14T01:16:57;16.10;;;9.52;;
79027;SDS011;68427;48.476;19.102;2023-03-14T01:19:25;14.30;;;8.55;;
79027;SDS011;68427;48.476;19.102;2023-03-14T01:21:51;11.65;;;7.18;;
79027;SDS011;68427;48.476;19.102;2023-03-14T01:24:17;11.57;;;7.75;;
79027;SDS011;68427;48.476;19.102;2023-03-14T01:26:43;13.80;;;9.07;;
79027;SDS011;68427;48.476;19.102;2023-03-14T01:29:08;15.13;;;8.05;;
79027;SDS011;68427;48.476;19.102;2023-03-14T01:31:34;14.38;;;8.65;;
79027;SDS011;68427;48.476;19.102;2023-03-14T01:34:01;11.95;;;7.10;;
79027;SDS011;68427;48.476;19.102;2023-03-14T01:36:27;16.27;;;9.73;;
79027;SDS011;68427;48.476;19.102;2023-03-14T01:38:53;14.07;;;7.95;;
79027;SDS011;68427;48.476;19.102;2023-03-14T01:41:19;17.55;;;8.13;;
79027;SDS011;68427;48.476;19.102;2023-03-14T01:43:47;17.73;;;10.18;;
79027;SDS011;68427;48.476;19.102;2023-03-14T01:46:24;16.58;;;9.07;;
79027;SDS011;68427;48.476;19.102;2023-03-14T01:49:08;16.38;;;7.82;;
79027;SDS011;68427;48.476;19.102;2023-03-14T01:51:41;13.05;;;8.40;;
79027;SDS011;68427;48.476;19.102;2023-03-14T01:54:12;12.82;;;6.90;;
79027;SDS011;68427;48.476;19.102;2023-03-14T01:56:44;12.05;;;7.65;;
79027;SDS011;68427;48.476;19.102;2023-03-14T01:59:15;9.98;;;6.25;;
79027;SDS011;68427;48.476;19.102;2023-03-14T02:01:41;8.65;;;5.43;;
79027;SDS011;68427;48.476;19.102;2023-03-14T02:04:12;7.32;;;5.20;;
79027;SDS011;68427;48.476;19.102;2023-03-14T02:09:25;11.05;;;6.32;;
79027;SDS011;68427;48.476;19.102;2023-03-14T02:11:51;11.82;;;6.55;;
79027;SDS011;68427;48.476;19.102;2023-03-14T02:14:22;10.48;;;6.00;;
79027;SDS011;68427;48.476;19.102;2023-03-14T02:16:53;8.60;;;6.50;;
79027;SDS011;68427;48.476;19.102;2023-03-14T02:19:21;11.30;;;6.32;;
79027;SDS011;68427;48.476;19.102;2023-03-14T02:22:02;12.20;;;6.82;;
79027;SDS011;68427;48.476;19.102;2023-03-14T02:24:34;8.13;;;4.82;;
79027;SDS011;68427;48.476;19.102;2023-03-14T02:27:15;12.25;;;7.10;;
79027;SDS011;68427;48.476;19.102;2023-03-14T02:29:45;12.00;;;7.10;;
79027;SDS011;68427;48.476;19.102;2023-03-14T02:32:15;10.02;;;6.88;;
79027;SDS011;68427;48.476;19.102;2023-03-14T02:34:42;14.82;;;7.43;;
79027;SDS011;68427;48.476;19.102;2023-03-14T02:37:11;9.95;;;7.22;;
79027;SDS011;68427;48.476;19.102;2023-03-14T02:39:40;10.73;;;7.07;;
79027;SDS011;68427;48.476;19.102;2023-03-14T02:42:09;12.05;;;7.75;;
79027;SDS011;68427;48.476;19.102;2023-03-14T02:44:45;9.88;;;6.43;;
79027;SDS011;68427;48.476;19.102;2023-03-14T02:47:13;9.88;;;6.13;;
79027;SDS011;68427;48.476;19.102;2023-03-14T02:49:39;10.38;;;6.78;;
79027;SDS011;68427;48.476;19.102;2023-03-14T02:52:05;11.50;;;6.72;;
79027;SDS011;68427;48.476;19.102;2023-03-14T02:54:31;10.07;;;6.90;;
79027;SDS011;68427;48.476;19.102;2023-03-14T02:56:56;7.88;;;5.45;;
79027;SDS011;68427;48.476;19.102;2023-03-14T02:59:22;11.40;;;8.10;;
79027;SDS011;68427;48.476;19.102;2023-03-14T03:01:49;11.30;;;6.78;;
79027;SDS011;68427;48.476;19.102;2023-03-14T03:04:15;10.88;;;6.88;;
79027;SDS011;68427;48.476;19.102;2023-03-14T03:06:41;8.70;;;7.15;;
79027;SDS011;68427;48.476;19.102;2023-03-14T03:09:07;10.65;;;6.72;;
79027;SDS011;68427;48.476;19.102;2023-03-14T03:11:33;12.02;;;8.20;;
79027;SDS011;68427;48.476;19.102;2023-03-14T03:13:59;11.63;;;7.55;;
79027;SDS011;68427;48.476;19.102;2023-03-14T03:16:24;9.95;;;6.95;;
79027;SDS011;68427;48.476;19.102;2023-03-14T03:18:51;10.25;;;6.38;;
79027;SDS011;68427;48.476;19.102;2023-03-14T03:21:17;10.50;;;6.57;;
79027;SDS011;68427;48.476;19.102;2023-03-14T03:23:44;13.05;;;6.70;;
79027;SDS011;68427;48.476;19.102;2023-03-14T03:26:09;9.85;;;5.72;;
79027;SDS011;68427;48.476;19.102;2023-03-14T03:28:36;9.25;;;6.13;;
79027;SDS011;68427;48.476;19.102;2023-03-14T03:31:06;13.00;;;6.90;;
79027;SDS011;68427;48.476;19.102;2023-03-14T03:33:33;10.02;;;5.53;;
79027;SDS011;68427;48.476;19.102;2023-03-14T03:36:00;11.98;;;6.47;;
79027;SDS011;68427;48.476;19.102;2023-03-14T03:38:25;9.65;;;5.75;;
79027;SDS011;68427;48.476;19.102;2023-03-14T03:40:51;10.85;;;5.55;;
79027;SDS011;68427;48.476;19.102;2023-03-14T03:43:17;9.88;;;5.78;;
79027;SDS011;68427;48.476;19.102;2023-03-14T03:45:43;9.75;;;6.55;;
79027;SDS011;68427;48.476;19.102;2023-03-14T03:48:09;9.40;;;6.63;;
79027;SDS011;68427;48.476;19.102;2023-03-14T03:50:35;11.00;;;6.43;;
79027;SDS011;68427;48.476;19.102;2023-03-14T03:53:02;17.85;;;9.80;;
79027;SDS011;68427;48.476;19.102;2023-03-14T03:55:28;12.10;;;6.13;;
79027;SDS011;68427;48.476;19.102;2023-03-14T03:57:54;19.35;;;8.80;;
79027;SDS011;68427;48.476;19.102;2023-03-14T04:00:20;16.00;;;9.27;;
79027;SDS011;68427;48.476;19.102;2023-03-14T04:02:45;19.75;;;9.15;;
79027;SDS011;68427;48.476;19.102;2023-03-14T04:05:11;17.17;;;9.70;;
79027;SDS011;68427;48.476;19.102;2023-03-14T04:07:37;17.52;;;9.23;;
79027;SDS011;68427;48.476;19.102;2023-03-14T04:10:04;15.13;;;9.60;;
79027;SDS011;68427;48.476;19.102;2023-03-14T04:12:30;16.02;;;9.32;;
79027;SDS011;68427;48.476;19.102;2023-03-14T04:14:56;18.08;;;9.55;;
79027;SDS011;68427;48.476;19.102;2023-03-14T04:17:22;16.58;;;8.52;;
79027;SDS011;68427;48.476;19.102;2023-03-14T04:19:47;15.18;;;8.80;;
79027;SDS011;68427;48.476;19.102;2023-03-14T04:22:16;17.15;;;9.02;;
79027;SDS011;68427;48.476;19.102;2023-03-14T04:24:42;22.08;;;10.02;;
79027;SDS011;68427;48.476;19.102;2023-03-14T04:27:09;18.58;;;9.57;;
79027;SDS011;68427;48.476;19.102;2023-03-14T04:29:34;17.23;;;7.70;;
79027;SDS011;68427;48.476;19.102;2023-03-14T04:32:00;14.82;;;9.13;;
79027;SDS011;68427;48.476;19.102;2023-03-14T04:34:26;13.25;;;7.93;;
79027;SDS011;68427;48.476;19.102;2023-03-14T04:36:51;12.60;;;8.88;;
79027;SDS011;68427;48.476;19.102;2023-03-14T04:39:24;8.32;;;6.30;;
79027;SDS011;68427;48.476;19.102;2023-03-14T04:41:49;11.40;;;6.43;;
79027;SDS011;68427;48.476;19.102;2023-03-14T04:44:17;7.53;;;5.43;;
79027;SDS011;68427;48.476;19.102;2023-03-14T04:46:42;10.20;;;5.55;;
79027;SDS011;68427;48.476;19.102;2023-03-14T04:49:08;7.88;;;4.20;;
79027;SDS011;68427;48.476;19.102;2023-03-14T04:51:34;12.00;;;6.00;;
79027;SDS011;68427;48.476;19.102;2023-03-14T04:53:59;16.70;;;7.22;;
79027;SDS011;68427;48.476;19.102;2023-03-14T04:56:25;15.75;;;7.55;;
79027;SDS011;68427;48.476;19.102;2023-03-14T04:58:51;19.48;;;10.40;;
79027;SDS011;68427;48.476;19.102;2023-03-14T05:01:18;22.63;;;11.07;;
79027;SDS011;68427;48.476;19.102;2023-03-14T05:03:44;19.05;;;10.27;;
79027;SDS011;68427;48.476;19.102;2023-03-14T05:06:09;20.23;;;8.88;;
79027;SDS011;68427;48.476;19.102;2023-03-14T05:08:35;14.93;;;8.68;;
79027;SDS011;68427;48.476;19.102;2023-03-14T05:11:01;10.02;;;6.22;;
79027;SDS011;68427;48.476;19.102;2023-03-14T05:13:28;9.75;;;5.43;;
79027;SDS011;68427;48.476;19.102;2023-03-14T05:15:53;8.57;;;6.60;;
79027;SDS011;68427;48.476;19.102;2023-03-14T05:18:29;12.20;;;9.80;;
79027;SDS011;68427;48.476;19.102;2023-03-14T05:20:55;10.60;;;5.07;;
79027;SDS011;68427;48.476;19.102;2023-03-14T05:23:20;7.18;;;5.13;;
79027;SDS011;68427;48.476;19.102;2023-03-14T05:25:46;10.23;;;6.07;;
79027;SDS011;68427;48.476;19.102;2023-03-14T05:28:12;11.20;;;5.82;;
79027;SDS011;68427;48.476;19.102;2023-03-14T05:30:37;10.98;;;6.97;;
79027;SDS011;68427;48.476;19.102;2023-03-14T05:33:03;10.02;;;6.30;;
79027;SDS011;68427;48.476;19.102;2023-03-14T05:35:30;9.02;;;6.13;;
79027;SDS011;68427;48.476;19.102;2023-03-14T05:37:56;8.77;;;6.05;;
79027;SDS011;68427;48.476;19.102;2023-03-14T05:40:22;9.40;;;5.20;;
79027;SDS011;68427;48.476;19.102;2023-03-14T05:42:47;8.63;;;5.93;;
79027;SDS011;68427;48.476;19.102;2023-03-14T05:45:13;9.75;;;6.55;;
79027;SDS011;68427;48.476;19.102;2023-03-14T05:47:39;9.68;;;5.53;;
79027;SDS011;68427;48.476;19.102;2023-03-14T05:50:05;11.02;;;5.97;;
79027;SDS011;68427;48.476;19.102;2023-03-14T05:52:32;12.07;;;7.38;;
79027;SDS011;68427;48.476;19.102;2023-03-14T05:54:58;10.20;;;6.55;;
79027;SDS011;68427;48.476;19.102;2023-03-14T05:57:24;8.82;;;6.50;;
79027;SDS011;68427;48.476;19.102;2023-03-14T05:59:49;8.32;;;5.20;;
79027;SDS011;68427;48.476;19.102;2023-03-14T06:02:15;6.47;;;5.63;;
79027;SDS011;68427;48.476;19.102;2023-03-14T06:04:41;8.48;;;5.88;;
79027;SDS011;68427;48.476;19.102;2023-03-14T06:07:06;6.22;;;4.20;;
79027;SDS011;68427;48.476;19.102;2023-03-14T06:09:34;8.55;;;4.93;;
79027;SDS011;68427;48.476;19.102;2023-03-14T06:11:59;9.18;;;6.15;;
79027;SDS011;68427;48.476;19.102;2023-03-14T06:14:25;8.48;;;3.97;;
79027;SDS011;68427;48.476;19.102;2023-03-14T06:16:51;11.60;;;5.75;;
79027;SDS011;68427;48.476;19.102;2023-03-14T06:19:17;7.97;;;4.78;;
79027;SDS011;68427;48.476;19.102;2023-03-14T06:21:43;9.45;;;5.97;;
79027;SDS011;68427;48.476;19.102;2023-03-14T06:24:09;8.25;;;5.43;;
79027;SDS011;68427;48.476;19.102;2023-03-14T06:26:36;7.85;;;5.07;;
79027;SDS011;68427;48.476;19.102;2023-03-14T06:29:02;8.23;;;4.60;;
79027;SDS011;68427;48.476;19.102;2023-03-14T06:31:28;7.82;;;5.07;;
79027;SDS011;68427;48.476;19.102;2023-03-14T06:33:54;8.52;;;6.22;;
79027;SDS011;68427;48.476;19.102;2023-03-14T06:36:20;7.50;;;4.72;;
79027;SDS011;68427;48.476;19.102;2023-03-14T06:38:46;8.93;;;4.75;;
79027;SDS011;68427;48.476;19.102;2023-03-14T06:41:11;7.25;;;4.82;;
79027;SDS011;68427;48.476;19.102;2023-03-14T06:43:38;24.73;;;12.85;;
79027;SDS011;68427;48.476;19.102;2023-03-14T06:46:04;6.93;;;4.63;;
79027;SDS011;68427;48.476;19.102;2023-03-14T06:48:30;11.23;;;4.63;;
79027;SDS011;68427;48.476;19.102;2023-03-14T06:50:56;9.15;;;5.57;;
79027;SDS011;68427;48.476;19.102;2023-03-14T06:53:22;9.43;;;4.25;;
79027;SDS011;68427;48.476;19.102;2023-03-14T06:55:47;10.25;;;6.28;;
79027;SDS011;68427;48.476;19.102;2023-03-14T06:58:13;10.68;;;5.53;;
79027;SDS011;68427;48.476;19.102;2023-03-14T07:00:40;9.23;;;4.50;;
79027;SDS011;68427;48.476;19.102;2023-03-14T07:03:06;12.50;;;5.22;;
79027;SDS011;68427;48.476;19.102;2023-03-14T07:05:32;14.45;;;7.18;;
79027;SDS011;68427;48.476;19.102;2023-03-14T07:07:58;11.38;;;5.88;;
79027;SDS011;68427;48.476;19.102;2023-03-14T07:10:24;11.77;;;6.00;;
79027;SDS011;68427;48.476;19.102;2023-03-14T07:12:49;11.13;;;4.72;;
79027;SDS011;68427;48.476;19.102;2023-03-14T07:15:15;11.38;;;5.25;;
79027;SDS011;68427;48.476;19.102;2023-03-14T07:17:42;9.98;;;6.38;;
79027;SDS011;68427;48.476;19.102;2023-03-14T07:20:09;10.48;;;5.97;;
79027;SDS011;68427;48.476;19.102;2023-03-14T07:22:35;7.13;;;3.78;;
79027;SDS011;68427;48.476;19.102;2023-03-14T07:25:01;8.02;;;5.97;;
79027;SDS011;68427;48.476;19.102;2023-03-14T07:27:26;5.50;;;4.18;;
79027;SDS011;68427;48.476;19.102;2023-03-14T07:29:52;7.75;;;5.07;;
79027;SDS011;68427;48.476;19.102;2023-03-14T07:32:18;9.20;;;4.63;;
79027;SDS011;68427;48.476;19.102;2023-03-14T07:34:45;9.40;;;6.82;;
79027;SDS011;68427;48.476;19.102;2023-03-14T07:37:11;9.75;;;5.60;;
79027;SDS011;68427;48.476;19.102;2023-03-14T07:39:36;11.35;;;5.82;;
79027;SDS011;68427;48.476;19.102;2023-03-14T07:42:02;6.57;;;4.55;;
79027;SDS011;68427;48.476;19.102;2023-03-14T07:44:28;7.25;;;4.82;;
79027;SDS011;68427;48.476;19.102;2023-03-14T07:46:53;8.70;;;5.40;;
79027;SDS011;68427;48.476;19.102;2023-03-14T07:49:19;8.75;;;4.78;;
79027;SDS011;68427;48.476;19.102;2023-03-14T07:51:48;7.10;;;5.95;;
79027;SDS011;68427;48.476;19.102;2023-03-14T07:54:14;8.93;;;4.60;;
79027;SDS011;68427;48.476;19.102;2023-03-14T07:56:40;8.43;;;4.53;;
79027;SDS011;68427;48.476;19.102;2023-03-14T07:59:06;8.77;;;5.15;;
79027;SDS011;68427;48.476;19.102;2023-03-14T08:01:32;10.77;;;4.88;;
79027;SDS011;68427;48.476;19.102;2023-03-14T08:03:58;7.82;;;4.97;;
79027;SDS011;68427;48.476;19.102;2023-03-14T08:06:24;9.60;;;5.57;;
79027;SDS011;68427;48.476;19.102;2023-03-14T08:08:51;10.63;;;5.50;;
79027;SDS011;68427;48.476;19.102;2023-03-14T08:11:17;9.00;;;5.35;;
79027;SDS011;68427;48.476;19.102;2023-03-14T08:13:42;8.00;;;4.32;;
79027;SDS011;68427;48.476;19.102;2023-03-14T08:16:14;6.57;;;3.97;;
79027;SDS011;68427;48.476;19.102;2023-03-14T08:18:40;7.88;;;4.18;;
79027;SDS011;68427;48.476;19.102;2023-03-14T08:21:06;5.95;;;4.32;;
79027;SDS011;68427;48.476;19.102;2023-03-14T08:23:32;6.63;;;4.03;;
79027;SDS011;68427;48.476;19.102;2023-03-14T08:26:05;5.53;;;3.33;;
79027;SDS011;68427;48.476;19.102;2023-03-14T08:28:31;6.97;;;4.88;;
79027;SDS011;68427;48.476;19.102;2023-03-14T08:30:58;8.75;;;4.72;;
79027;SDS011;68427;48.476;19.102;2023-03-14T08:33:24;10.52;;;6.03;;
79027;SDS011;68427;48.476;19.102;2023-03-14T08:35:51;13.65;;;6.40;;
79027;SDS011;68427;48.476;19.102;2023-03-14T08:38:17;7.72;;;4.18;;
79027;SDS011;68427;48.476;19.102;2023-03-14T08:40:43;8.50;;;4.18;;
79027;SDS011;68427;48.476;19.102;2023-03-14T08:43:10;6.97;;;3.65;;
79027;SDS011;68427;48.476;19.102;2023-03-14T08:45:35;6.78;;;4.03;;
79027;SDS011;68427;48.476;19.102;2023-03-14T08:48:01;9.65;;;4.80;;
79027;SDS011;68427;48.476;19.102;2023-03-14T08:50:28;6.55;;;3.70;;
79027;SDS011;68427;48.476;19.102;2023-03-14T08:52:54;8.00;;;4.15;;
79027;SDS011;68427;48.476;19.102;2023-03-14T08:55:19;7.50;;;3.80;;
79027;SDS011;68427;48.476;19.102;2023-03-14T08:57:45;7.50;;;3.22;;
79027;SDS011;68427;48.476;19.102;2023-03-14T09:00:13;7.93;;;4.32;;
79027;SDS011;68427;48.476;19.102;2023-03-14T09:02:40;9.52;;;5.38;;
79027;SDS011;68427;48.476;19.102;2023-03-14T09:05:06;8.32;;;4.93;;
79027;SDS011;68427;48.476;19.102;2023-03-14T09:07:33;6.85;;;3.97;;
79027;SDS011;68427;48.476;19.102;2023-03-14T09:09:59;6.57;;;5.00;;
79027;SDS011;68427;48.476;19.102;2023-03-14T09:12:24;7.40;;;5.43;;
79027;SDS011;68427;48.476;19.102;2023-03-14T09:14:50;6.63;;;3.85;;
79027;SDS011;68427;48.476;19.102;2023-03-14T09:17:17;7.85;;;3.95;;
79027;SDS011;68427;48.476;19.102;2023-03-14T09:19:43;7.72;;;3.47;;
79027;SDS011;68427;48.476;19.102;2023-03-14T09:22:08;10.20;;;4.88;;
79027;SDS011;68427;48.476;19.102;2023-03-14T09:24:34;10.00;;;5.35;;
79027;SDS011;68427;48.476;19.102;2023-03-14T09:27:00;7.43;;;4.07;;
79027;SDS011;68427;48.476;19.102;2023-03-14T09:29:26;12.10;;;6.75;;
79027;SDS011;68427;48.476;19.102;2023-03-14T09:31:51;8.15;;;4.30;;
79027;SDS011;68427;48.476;19.102;2023-03-14T09:34:19;11.57;;;4.63;;
79027;SDS011;68427;48.476;19.102;2023-03-14T09:36:44;7.45;;;4.97;;
79027;SDS011;68427;48.476;19.102;2023-03-14T09:39:10;12.07;;;3.97;;
79027;SDS011;68427;48.476;19.102;2023-03-14T09:41:36;8.80;;;4.93;;
79027;SDS011;68427;48.476;19.102;2023-03-14T09:44:05;6.53;;;3.83;;
79027;SDS011;68427;48.476;19.102;2023-03-14T09:46:37;7.07;;;3.45;;
79027;SDS011;68427;48.476;19.102;2023-03-14T09:49:05;6.50;;;4.03;;
79027;SDS011;68427;48.476;19.102;2023-03-14T09:51:38;7.05;;;4.50;;
79027;SDS011;68427;48.476;19.102;2023-03-14T09:54:04;7.95;;;4.70;;
79027;SDS011;68427;48.476;19.102;2023-03-14T09:56:31;7.13;;;5.00;;
79027;SDS011;68427;48.476;19.102;2023-03-14T09:58:58;7.97;;;3.83;;
79027;SDS011;68427;48.476;19.102;2023-03-14T10:01:26;6.85;;;4.20;;
79027;SDS011;68427;48.476;19.102;2023-03-14T10:03:55;7.57;;;4.55;;
79027;SDS011;68427;48.476;19.102;2023-03-14T10:06:22;9.73;;;5.65;;
79027;SDS011;68427;48.476;19.102;2023-03-14T10:08:52;8.75;;;4.65;;
79027;SDS011;68427;48.476;19.102;2023-03-14T10:11:20;6.60;;;3.97;;
79027;SDS011;68427;48.476;19.102;2023-03-14T10:13:47;8.13;;;4.50;;
79027;SDS011;68427;48.476;19.102;2023-03-14T10:16:14;7.25;;;5.05;;
79027;SDS011;68427;48.476;19.102;2023-03-14T10:18:43;7.10;;;4.93;;
79027;SDS011;68427;48.476;19.102;2023-03-14T10:21:17;11.02;;;6.28;;
79027;SDS011;68427;48.476;19.102;2023-03-14T10:23:46;8.25;;;5.82;;
79027;SDS011;68427;48.476;19.102;2023-03-14T10:26:14;8.60;;;4.88;;
79027;SDS011;68427;48.476;19.102;2023-03-14T10:28:43;11.43;;;6.70;;
79027;SDS011;68427;48.476;19.102;2023-03-14T10:31:10;12.20;;;9.18;;
79027;SDS011;68427;48.476;19.102;2023-03-14T10:33:37;9.85;;;5.50;;
79027;SDS011;68427;48.476;19.102;2023-03-14T10:36:03;7.78;;;4.30;;
79027;SDS011;68427;48.476;19.102;2023-03-14T10:38:40;7.95;;;4.18;;
79027;SDS011;68427;48.476;19.102;2023-03-14T10:41:15;8.40;;;4.63;;
79027;SDS011;68427;48.476;19.102;2023-03-14T10:43:42;11.75;;;5.10;;
79027;SDS011;68427;48.476;19.102;2023-03-14T10:46:09;12.60;;;6.97;;
79027;SDS011;68427;48.476;19.102;2023-03-14T10:48:39;14.57;;;9.18;;
79027;SDS011;68427;48.476;19.102;2023-03-14T10:51:08;14.05;;;11.60;;
79027;SDS011;68427;48.476;19.102;2023-03-14T10:53:40;14.32;;;8.95;;
79027;SDS011;68427;48.476;19.102;2023-03-14T10:56:07;13.10;;;7.00;;
79027;SDS011;68427;48.476;19.102;2023-03-14T10:58:41;6.32;;;3.78;;
79027;SDS011;68427;48.476;19.102;2023-03-14T11:01:17;13.00;;;6.68;;
79027;SDS011;68427;48.476;19.102;2023-03-14T11:03:53;9.20;;;5.80;;
79027;SDS011;68427;48.476;19.102;2023-03-14T11:06:23;13.35;;;7.07;;
79027;SDS011;68427;48.476;19.102;2023-03-14T11:09:00;12.10;;;6.28;;
79027;SDS011;68427;48.476;19.102;2023-03-14T11:11:30;11.30;;;5.95;;
79027;SDS011;68427;48.476;19.102;2023-03-14T11:14:07;7.43;;;4.70;;
79027;SDS011;68427;48.476;19.102;2023-03-14T11:16:44;8.60;;;4.60;;
79027;SDS011;68427;48.476;19.102;2023-03-14T11:19:20;7.90;;;4.13;;
79027;SDS011;68427;48.476;19.102;2023-03-14T11:24:41;7.65;;;4.65;;
79027;SDS011;68427;48.476;19.102;2023-03-14T11:27:18;11.65;;;4.53;;
79027;SDS011;68427;48.476;19.102;2023-03-14T11:29:51;6.35;;;4.43;;
79027;SDS011;68427;48.476;19.102;2023-03-14T11:32:23;6.97;;;4.10;;
79027;SDS011;68427;48.476;19.102;2023-03-14T11:35:00;7.72;;;4.47;;
79027;SDS011;68427;48.476;19.102;2023-03-14T11:37:31;11.35;;;4.10;;
79027;SDS011;68427;48.476;19.102;2023-03-14T11:39:59;5.50;;;4.05;;
79027;SDS011;68427;48.476;19.102;2023-03-14T11:42:31;7.13;;;4.15;;
79027;SDS011;68427;48.476;19.102;2023-03-14T11:44:59;12.45;;;5.28;;
79027;SDS011;68427;48.476;19.102;2023-03-14T11:47:28;8.15;;;4.57;;
79027;SDS011;68427;48.476;19.102;2023-03-14T11:49:58;11.00;;;5.13;;
79027;SDS011;68427;48.476;19.102;2023-03-14T11:52:30;10.50;;;4.80;;
79027;SDS011;68427;48.476;19.102;2023-03-14T11:54:58;7.93;;;4.35;;
79027;SDS011;68427;48.476;19.102;2023-03-14T11:57:28;6.70;;;4.93;;
79027;SDS011;68427;48.476;19.102;2023-03-14T11:59:55;7.40;;;5.68;;
79027;SDS011;68427;48.476;19.102;2023-03-14T12:02:31;14.30;;;5.18;;
79027;SDS011;68427;48.476;19.102;2023-03-14T12:05:19;7.35;;;4.85;;
79027;SDS011;68427;48.476;19.102;2023-03-14T12:10:54;10.60;;;4.88;;
79027;SDS011;68427;48.476;19.102;2023-03-14T12:13:24;8.75;;;5.05;;
79027;SDS011;68427;48.476;19.102;2023-03-14T12:15:56;8.40;;;4.53;;
79027;SDS011;68427;48.476;19.102;2023-03-14T12:18:26;8.68;;;4.93;;
79027;SDS011;68427;48.476;19.102;2023-03-14T12:20:55;8.52;;;5.05;;
79027;SDS011;68427;48.476;19.102;2023-03-14T12:23:23;12.18;;;5.07;;
79027;SDS011;68427;48.476;19.102;2023-03-14T12:28:32;8.20;;;4.65;;
79027;SDS011;68427;48.476;19.102;2023-03-14T12:30:59;11.30;;;6.05;;
79027;SDS011;68427;48.476;19.102;2023-03-14T12:37:06;8.38;;;4.40;;
79027;SDS011;68427;48.476;19.102;2023-03-14T12:39:43;9.27;;;5.55;;
79027;SDS011;68427;48.476;19.102;2023-03-14T12:42:17;9.30;;;5.85;;
79027;SDS011;68427;48.476;19.102;2023-03-14T12:45:13;8.55;;;5.47;;
79027;SDS011;68427;48.476;19.102;2023-03-14T12:47:51;9.07;;;6.05;;
79027;SDS011;68427;48.476;19.102;2023-03-14T12:50:22;9.93;;;5.03;;
79027;SDS011;68427;48.476;19.102;2023-03-14T12:52:57;8.90;;;4.97;;
79027;SDS011;68427;48.476;19.102;2023-03-14T12:55:45;8.65;;;4.55;;
79027;SDS011;68427;48.476;19.102;2023-03-14T12:58:15;8.85;;;5.53;;
79027;SDS011;68427;48.476;19.102;2023-03-14T13:00:50;9.90;;;5.65;;
79027;SDS011;68427;48.476;19.102;2023-03-14T13:03:22;8.88;;;5.72;;
79027;SDS011;68427;48.476;19.102;2023-03-14T13:05:53;7.25;;;4.57;;
79027;SDS011;68427;48.476;19.102;2023-03-14T13:11:02;10.82;;;6.07;;
79027;SDS011;68427;48.476;19.102;2023-03-14T13:13:31;14.35;;;6.40;;
79027;SDS011;68427;48.476;19.102;2023-03-14T13:16:01;10.40;;;5.35;;
79027;SDS011;68427;48.476;19.102;2023-03-14T13:18:33;11.05;;;5.95;;
79027;SDS011;68427;48.476;19.102;2023-03-14T13:21:02;7.88;;;5.53;;
79027;SDS011;68427;48.476;19.102;2023-03-14T13:23:31;7.75;;;5.18;;
79027;SDS011;68427;48.476;19.102;2023-03-14T13:25:59;9.80;;;5.63;;
79027;SDS011;68427;48.476;19.102;2023-03-14T13:28:26;7.75;;;4.78;;
79027;SDS011;68427;48.476;19.102;2023-03-14T13:30:54;10.23;;;5.30;;
79027;SDS011;68427;48.476;19.102;2023-03-14T13:33:23;8.77;;;5.63;;
79027;SDS011;68427;48.476;19.102;2023-03-14T13:35:54;9.90;;;5.30;;
79027;SDS011;68427;48.476;19.102;2023-03-14T13:38:22;11.77;;;5.93;;
79027;SDS011;68427;48.476;19.102;2023-03-14T13:40:49;10.57;;;5.22;;
79027;SDS011;68427;48.476;19.102;2023-03-14T13:43:19;9.38;;;5.28;;
79027;SDS011;68427;48.476;19.102;2023-03-14T13:45:52;10.35;;;5.63;;
79027;SDS011;68427;48.476;19.102;2023-03-14T13:48:21;10.43;;;6.22;;
79027;SDS011;68427;48.476;19.102;2023-03-14T13:50:56;10.18;;;5.70;;
79027;SDS011;68427;48.476;19.102;2023-03-14T13:53:24;8.05;;;5.15;;
79027;SDS011;68427;48.476;19.102;2023-03-14T13:55:50;10.48;;;5.40;;
79027;SDS011;68427;48.476;19.102;2023-03-14T13:58:21;10.18;;;5.57;;
79027;SDS011;68427;48.476;19.102;2023-03-14T14:00:56;8.13;;;5.10;;
79027;SDS011;68427;48.476;19.102;2023-03-14T14:03:24;9.88;;;6.93;;
79027;SDS011;68427;48.476;19.102;2023-03-14T14:05:51;8.15;;;4.70;;
79027;SDS011;68427;48.476;19.102;2023-03-14T14:08:20;7.32;;;4.75;;
79027;SDS011;68427;48.476;19.102;2023-03-14T14:10:46;6.65;;;4.63;;
79027;SDS011;68427;48.476;19.102;2023-03-14T14:13:15;9.68;;;5.88;;
79027;SDS011;68427;48.476;19.102;2023-03-14T14:15:45;9.85;;;4.70;;
79027;SDS011;68427;48.476;19.102;2023-03-14T14:18:14;11.82;;;5.15;;
79027;SDS011;68427;48.476;19.102;2023-03-14T14:20:43;9.73;;;5.57;;
79027;SDS011;68427;48.476;19.102;2023-03-14T14:23:17;9.95;;;5.65;;
79027;SDS011;68427;48.476;19.102;2023-03-14T14:25:51;11.60;;;7.15;;
79027;SDS011;68427;48.476;19.102;2023-03-14T14:28:21;12.40;;;7.85;;
79027;SDS011;68427;48.476;19.102;2023-03-14T14:30:58;20.45;;;11.15;;
79027;SDS011;68427;48.476;19.102;2023-03-14T14:33:26;16.02;;;10.00;;
79027;SDS011;68427;48.476;19.102;2023-03-14T14:35:53;19.23;;;12.10;;
79027;SDS011;68427;48.476;19.102;2023-03-14T14:38:21;22.05;;;12.82;;
79027;SDS011;68427;48.476;19.102;2023-03-14T14:40:48;19.17;;;11.40;;
79027;SDS011;68427;48.476;19.102;2023-03-14T14:43:18;17.90;;;9.93;;
79027;SDS011;68427;48.476;19.102;2023-03-14T14:45:48;16.63;;;9.30;;
79027;SDS011;68427;48.476;19.102;2023-03-14T14:50:48;17.60;;;9.10;;
79027;SDS011;68427;48.476;19.102;2023-03-14T14:53:21;18.02;;;12.70;;
79027;SDS011;68427;48.476;19.102;2023-03-14T14:55:49;22.88;;;14.30;;